sensor_id;sensor_type;location;lat;lon;timestamp;pressure;altitude;pressure_sealevel;temperature;humidity
34185;BME280;20454;48.100;11.776;2023-03-23T00:00:07;94961.41;;;9.21;72.92
34185;BME280;20454;48.100;11.776;2023-03-23T00:02:34;94952.41;;;9.16;73.01
34185;BME280;20454;48.100;11.776;2023-03-23T00:05:06;94962.03;;;9.18;73.09
34185;BME280;20454;48.100;11.776;2023-03-23T00:07:34;94957.31;;;9.19;73.10
34185;BME280;20454;48.100;11.776;2023-03-23T00:10:00;94962.03;;;9.18;72.53
34185;BME280;20454;48.100;11.776;2023-03-23T00:12:30;94964.31;;;9.16;72.71
34185;BME280;20454;48.100;11.776;2023-03-23T00:15:05;94963.50;;;9.16;72.81
34185;BME280;20454;48.100;11.776;2023-03-23T00:17:32;94972.66;;;9.16;73.13
34185;BME280;20454;48.100;11.776;2023-03-23T00:19:59;94961.38;;;9.13;72.88
34185;BME280;20454;48.100;11.776;2023-03-23T00:22:27;94959.28;;;9.10;73.72
34185;BME280;20454;48.100;11.776;2023-03-23T00:24:54;94969.22;;;9.11;73.44
34185;BME280;20454;48.100;11.776;2023-03-23T00:27:22;94964.66;;;9.06;73.59
34185;BME280;20454;48.100;11.776;2023-03-23T00:29:51;94957.13;;;9.07;73.13
34185;BME280;20454;48.100;11.776;2023-03-23T00:32:20;94952.56;;;9.02;73.65
34185;BME280;20454;48.100;11.776;2023-03-23T00:34:47;94966.78;;;9.09;73.38
34185;BME280;20454;48.100;11.776;2023-03-23T00:37:15;94957.78;;;9.12;72.23
34185;BME280;20454;48.100;11.776;2023-03-23T00:39:45;94961.69;;;9.11;72.86
34185;BME280;20454;48.100;11.776;2023-03-23T00:42:13;94955.69;;;9.09;72.95
34185;BME280;20454;48.100;11.776;2023-03-23T00:44:40;94954.38;;;9.07;73.10
34185;BME280;20454;48.100;11.776;2023-03-23T00:47:06;94948.16;;;9.01;73.55
34185;BME280;20454;48.100;11.776;2023-03-23T00:49:34;94948.50;;;9.00;73.43
34185;BME280;20454;48.100;11.776;2023-03-23T00:52:01;94967.91;;;9.08;72.55
34185;BME280;20454;48.100;11.776;2023-03-23T00:54:28;94960.91;;;9.11;72.31
34185;BME280;20454;48.100;11.776;2023-03-23T00:56:54;94953.06;;;9.04;72.81
34185;BME280;20454;48.100;11.776;2023-03-23T00:59:21;94955.50;;;9.06;73.73
34185;BME280;20454;48.100;11.776;2023-03-23T01:01:48;94957.13;;;9.07;73.89
34185;BME280;20454;48.100;11.776;2023-03-23T01:04:15;94949.78;;;9.02;73.95
34185;BME280;20454;48.100;11.776;2023-03-23T01:06:43;94954.88;;;9.00;73.99
34185;BME280;20454;48.100;11.776;2023-03-23T01:09:13;94959.25;;;9.01;73.89
34185;BME280;20454;48.100;11.776;2023-03-23T01:11:44;94944.59;;;8.92;74.46
34185;BME280;20454;48.100;11.776;2023-03-23T01:14:12;94938.69;;;8.94;74.64
34185;BME280;20454;48.100;11.776;2023-03-23T01:16:38;94938.03;;;8.88;74.39
34185;BME280;20454;48.100;11.776;2023-03-23T01:19:04;94946.69;;;8.95;74.90
34185;BME280;20454;48.100;11.776;2023-03-23T01:21:30;94946.69;;;8.95;74.41
34185;BME280;20454;48.100;11.776;2023-03-23T01:23:56;94934.13;;;8.89;74.55
34185;BME280;20454;48.100;11.776;2023-03-23T01:26:25;94936.25;;;8.92;74.37
34185;BME280;20454;48.100;11.776;2023-03-23T01:28:51;94942.28;;;8.94;74.45
34185;BME280;20454;48.100;11.776;2023-03-23T01:31:21;94927.09;;;8.92;74.66
34185;BME280;20454;48.100;11.776;2023-03-23T01:33:48;94933.31;;;8.89;75.33
34185;BME280;20454;48.100;11.776;2023-03-23T01:36:23;94933.81;;;8.91;75.73
34185;BME280;20454;48.100;11.776;2023-03-23T01:38:50;94932.66;;;8.92;75.76
34185;BME280;20454;48.100;11.776;2023-03-23T01:41:18;94935.44;;;8.92;75.41
34185;BME280;20454;48.100;11.776;2023-03-23T01:44:59;94926.63;;;8.90;75.86
34185;BME280;20454;48.100;11.776;2023-03-23T01:46:53;94931.03;;;8.91;76.04
34185;BME280;20454;48.100;11.776;2023-03-23T01:49:25;94927.44;;;8.90;76.07
34185;BME280;20454;48.100;11.776;2023-03-23T01:51:58;94924.03;;;8.93;75.63
34185;BME280;20454;48.100;11.776;2023-03-23T01:54:26;94929.06;;;8.91;76.16
34185;BME280;20454;48.100;11.776;2023-03-23T01:57:09;94936.75;;;8.94;75.75
34185;BME280;20454;48.100;11.776;2023-03-23T01:59:36;94928.25;;;8.91;75.87
34185;BME280;20454;48.100;11.776;2023-03-23T02:02:03;94935.44;;;8.92;76.16
34185;BME280;20454;48.100;11.776;2023-03-23T02:04:30;94920.91;;;8.86;76.06
34185;BME280;20454;48.100;11.776;2023-03-23T02:06:57;94927.09;;;8.92;76.30
34185;BME280;20454;48.100;11.776;2023-03-23T02:09:25;94932.97;;;8.90;76.46
34185;BME280;20454;48.100;11.776;2023-03-23T02:11:51;94937.88;;;8.93;76.64
34185;BME280;20454;48.100;11.776;2023-03-23T02:14:19;94926.47;;;8.86;76.67
34185;BME280;20454;48.100;11.776;2023-03-23T02:16:55;94940.00;;;8.96;76.46
34185;BME280;20454;48.100;11.776;2023-03-23T02:32:16;94929.88;;;8.83;77.29
34185;BME280;20454;48.100;11.776;2023-03-23T02:35:00;94914.72;;;8.72;77.66
34185;BME280;20454;48.100;11.776;2023-03-23T02:37:44;94922.84;;;8.77;78.35
34185;BME280;20454;48.100;11.776;2023-03-23T02:40:24;94907.38;;;8.68;78.66
34185;BME280;20454;48.100;11.776;2023-03-23T02:42:54;94919.25;;;8.68;79.15
34185;BME280;20454;48.100;11.776;2023-03-23T02:45:24;94920.88;;;8.69;78.85
34185;BME280;20454;48.100;11.776;2023-03-23T02:47:53;94916.81;;;8.67;79.35
34185;BME280;20454;48.100;11.776;2023-03-23T02:50:23;94919.41;;;8.63;79.28
34185;BME280;20454;48.100;11.776;2023-03-23T02:52:50;94922.84;;;8.60;79.16
34185;BME280;20454;48.100;11.776;2023-03-23T02:55:19;94911.75;;;8.60;80.03
34185;BME280;20454;48.100;11.776;2023-03-23T02:57:48;94919.91;;;8.57;80.13
34185;BME280;20454;48.100;11.776;2023-03-23T05:00:35;94963.06;;;8.02;83.80
34185;BME280;20454;48.100;11.776;2023-03-23T05:03:01;94950.19;;;7.97;83.92
34185;BME280;20454;48.100;11.776;2023-03-23T05:05:27;94963.19;;;7.97;84.58
34185;BME280;20454;48.100;11.776;2023-03-23T05:07:55;94959.81;;;8.00;84.89
34185;BME280;20454;48.100;11.776;2023-03-23T05:10:22;94957.34;;;7.98;84.84
34185;BME280;20454;48.100;11.776;2023-03-23T05:12:48;94961.13;;;8.02;85.01
34185;BME280;20454;48.100;11.776;2023-03-23T05:15:15;94957.69;;;8.05;84.75
34185;BME280;20454;48.100;11.776;2023-03-23T05:17:42;94959.34;;;8.06;84.69
34185;BME280;20454;48.100;11.776;2023-03-23T05:20:13;94965.03;;;8.10;84.74
34185;BME280;20454;48.100;11.776;2023-03-23T05:22:41;94969.31;;;8.16;84.53
34185;BME280;20454;48.100;11.776;2023-03-23T05:25:08;94963.47;;;8.17;84.56
34185;BME280;20454;48.100;11.776;2023-03-23T05:27:35;94965.09;;;8.18;84.21
34185;BME280;20454;48.100;11.776;2023-03-23T05:30:02;94964.16;;;8.23;84.04
34185;BME280;20454;48.100;11.776;2023-03-23T05:32:28;94972.81;;;8.30;84.73
34185;BME280;20454;48.100;11.776;2023-03-23T05:34:58;94968.09;;;8.30;84.39
34185;BME280;20454;48.100;11.776;2023-03-23T05:37:27;94975.28;;;8.40;84.12
34185;BME280;20454;48.100;11.776;2023-03-23T05:39:54;94974.66;;;8.43;83.14
34185;BME280;20454;48.100;11.776;2023-03-23T05:42:24;94982.84;;;8.48;83.11
34185;BME280;20454;48.100;11.776;2023-03-23T06:36:39;94919.88;;;9.42;80.30
34185;BME280;20454;48.100;11.776;2023-03-23T06:39:05;94943.03;;;9.62;78.73
34185;BME280;20454;48.100;11.776;2023-03-23T06:41:32;94952.66;;;9.73;78.82
34185;BME280;20454;48.100;11.776;2023-03-23T06:44:01;94964.56;;;9.82;77.46
34185;BME280;20454;48.100;11.776;2023-03-23T06:46:27;94961.63;;;9.87;77.50
34185;BME280;20454;48.100;11.776;2023-03-23T06:48:55;94945.75;;;9.88;75.80
34185;BME280;20454;48.100;11.776;2023-03-23T06:51:21;94962.72;;;9.95;75.82
34185;BME280;20454;48.100;11.776;2023-03-23T06:53:47;94969.28;;;10.07;76.52
34185;BME280;20454;48.100;11.776;2023-03-23T06:56:12;94967.59;;;10.15;76.79
34185;BME280;20454;48.100;11.776;2023-03-23T06:58:39;94956.47;;;10.23;75.58
34185;BME280;20454;48.100;11.776;2023-03-23T07:01:07;94949.25;;;10.31;75.45
34185;BME280;20454;48.100;11.776;2023-03-23T07:03:34;94942.06;;;10.30;75.76
34185;BME280;20454;48.100;11.776;2023-03-23T07:05:59;94947.03;;;10.45;74.76
34185;BME280;20454;48.100;11.776;2023-03-23T07:08:26;94945.75;;;10.42;75.07
34185;BME280;20454;48.100;11.776;2023-03-23T07:10:53;94944.44;;;10.40;75.15
34185;BME280;20454;48.100;11.776;2023-03-23T07:13:20;94935.41;;;10.43;75.03
34185;BME280;20454;48.100;11.776;2023-03-23T07:15:46;94927.22;;;10.46;74.76
34185;BME280;20454;48.100;11.776;2023-03-23T07:18:12;94937.09;;;10.64;73.99
34185;BME280;20454;48.100;11.776;2023-03-23T07:20:38;94939.72;;;10.69;74.10
34185;BME280;20454;48.100;11.776;2023-03-23T07:23:04;94911.53;;;10.71;73.40
34185;BME280;20454;48.100;11.776;2023-03-23T07:25:34;94913.25;;;10.84;73.23
34185;BME280;20454;48.100;11.776;2023-03-23T07:28:02;94921.81;;;10.99;72.18
34185;BME280;20454;48.100;11.776;2023-03-23T07:30:28;94907.97;;;11.11;71.02
34185;BME280;20454;48.100;11.776;2023-03-23T07:32:56;94921.41;;;11.30;71.14
34185;BME280;20454;48.100;11.776;2023-03-23T07:35:23;94912.78;;;11.55;68.79
34185;BME280;20454;48.100;11.776;2023-03-23T07:37:49;94932.31;;;11.76;68.14
34185;BME280;20454;48.100;11.776;2023-03-23T07:40:15;94934.97;;;11.84;67.46
34185;BME280;20454;48.100;11.776;2023-03-23T07:42:43;94916.69;;;11.95;67.31
34185;BME280;20454;48.100;11.776;2023-03-23T07:45:11;94933.91;;;12.09;67.66
34185;BME280;20454;48.100;11.776;2023-03-23T07:47:39;94939.38;;;12.30;66.03
34185;BME280;20454;48.100;11.776;2023-03-23T07:50:06;94936.50;;;12.38;66.67
34185;BME280;20454;48.100;11.776;2023-03-23T07:52:33;94933.38;;;12.52;65.59
34185;BME280;20454;48.100;11.776;2023-03-23T07:55:00;94934.31;;;12.68;65.28
34185;BME280;20454;48.100;11.776;2023-03-23T07:57:28;94927.22;;;12.70;65.50
34185;BME280;20454;48.100;11.776;2023-03-23T07:59:54;94925.25;;;12.95;63.33
34185;BME280;20454;48.100;11.776;2023-03-23T14:18:11;94875.00;;;20.42;35.62
34185;BME280;20454;48.100;11.776;2023-03-23T14:20:38;94870.06;;;20.22;36.25
34185;BME280;20454;48.100;11.776;2023-03-23T14:23:05;94876.09;;;20.06;36.71
34185;BME280;20454;48.100;11.776;2023-03-23T14:25:32;94868.28;;;19.86;36.63
34185;BME280;20454;48.100;11.776;2023-03-23T14:27:58;94873.91;;;19.75;37.75
34185;BME280;20454;48.100;11.776;2023-03-23T14:30:34;94852.88;;;19.69;38.11
34185;BME280;20454;48.100;11.776;2023-03-23T14:33:10;94872.72;;;19.83;39.76
34185;BME280;20454;48.100;11.776;2023-03-23T14:35:42;94870.59;;;19.63;39.62
34185;BME280;20454;48.100;11.776;2023-03-23T14:38:23;94885.44;;;19.53;40.26
34185;BME280;20454;48.100;11.776;2023-03-23T14:40:52;94884.59;;;19.42;40.31
34185;BME280;20454;48.100;11.776;2023-03-23T14:43:21;94863.94;;;19.31;39.73
34185;BME280;20454;48.100;11.776;2023-03-23T14:45:53;94875.25;;;19.34;40.48
34185;BME280;20454;48.100;11.776;2023-03-23T14:48:20;94880.94;;;19.38;40.49
34185;BME280;20454;48.100;11.776;2023-03-23T14:50:58;94864.72;;;19.24;40.88
34185;BME280;20454;48.100;11.776;2023-03-23T14:53:37;94871.22;;;19.35;40.64
34185;BME280;20454;48.100;11.776;2023-03-23T14:56:15;94872.84;;;19.29;40.11
34185;BME280;20454;48.100;11.776;2023-03-23T14:58:50;94888.53;;;19.27;40.19
34185;BME280;20454;48.100;11.776;2023-03-23T15:01:25;94886.09;;;19.25;40.47
34185;BME280;20454;48.100;11.776;2023-03-23T15:04:20;94881.19;;;19.19;40.17
34185;BME280;20454;48.100;11.776;2023-03-23T15:06:59;94897.25;;;19.15;41.21
34185;BME280;20454;48.100;11.776;2023-03-23T15:09:26;94888.75;;;19.08;40.92
34185;BME280;20454;48.100;11.776;2023-03-23T15:12:01;94883.84;;;18.98;41.29
34185;BME280;20454;48.100;11.776;2023-03-23T15:14:54;94891.34;;;18.83;41.72
34185;BME280;20454;48.100;11.776;2023-03-23T15:17:33;94899.25;;;18.64;40.86
34185;BME280;20454;48.100;11.776;2023-03-23T17:01:03;94918.75;;;15.55;59.86
34185;BME280;20454;48.100;11.776;2023-03-23T17:03:30;94917.31;;;15.46;61.05
34185;BME280;20454;48.100;11.776;2023-03-23T17:05:56;94921.59;;;15.40;61.23
34185;BME280;20454;48.100;11.776;2023-03-23T17:08:23;94916.50;;;15.30;59.98
34185;BME280;20454;48.100;11.776;2023-03-23T17:10:49;94926.84;;;15.26;60.21
34185;BME280;20454;48.100;11.776;2023-03-23T17:13:14;94926.38;;;15.24;60.80
34185;BME280;20454;48.100;11.776;2023-03-23T17:15:42;94928.31;;;15.20;60.91
34185;BME280;20454;48.100;11.776;2023-03-23T17:18:08;94932.13;;;15.12;61.79
34185;BME280;20454;48.100;11.776;2023-03-23T17:20:34;94930.69;;;15.02;62.47
34185;BME280;20454;48.100;11.776;2023-03-23T17:23:00;94937.75;;;14.96;62.53
34185;BME280;20454;48.100;11.776;2023-03-23T17:25:26;94933.25;;;14.92;63.35
34185;BME280;20454;48.100;11.776;2023-03-23T17:27:52;94931.16;;;14.89;63.23
34185;BME280;20454;48.100;11.776;2023-03-23T17:30:18;94925.38;;;14.82;64.22
34185;BME280;20454;48.100;11.776;2023-03-23T17:32:44;94924.41;;;14.75;64.84
34185;BME280;20454;48.100;11.776;2023-03-23T17:35:11;94939.41;;;14.67;65.81
34185;BME280;20454;48.100;11.776;2023-03-23T17:37:37;94932.09;;;14.62;66.56
34185;BME280;20454;48.100;11.776;2023-03-23T17:40:05;94935.97;;;14.58;67.40
34185;BME280;20454;48.100;11.776;2023-03-23T17:42:35;94937.03;;;14.53;68.68
34185;BME280;20454;48.100;11.776;2023-03-23T17:45:02;94936.06;;;14.46;69.88
34185;BME280;20454;48.100;11.776;2023-03-23T17:47:27;94929.00;;;14.36;69.75
34185;BME280;20454;48.100;11.776;2023-03-23T17:49:53;94929.38;;;14.35;70.38
34185;BME280;20454;48.100;11.776;2023-03-23T17:52:19;94932.41;;;14.30;70.58
34185;BME280;20454;48.100;11.776;2023-03-23T17:54:44;94936.84;;;14.31;70.52
34185;BME280;20454;48.100;11.776;2023-03-23T17:57:10;94933.41;;;14.22;71.29
34185;BME280;20454;48.100;11.776;2023-03-23T17:59:36;94932.47;;;14.18;71.59
34185;BME280;20454;48.100;11.776;2023-03-23T18:02:01;94940.41;;;14.16;71.51
34185;BME280;20454;48.100;11.776;2023-03-23T18:04:27;94942.22;;;14.08;71.92
34185;BME280;20454;48.100;11.776;2023-03-23T18:06:54;94939.31;;;14.05;71.52
34185;BME280;20454;48.100;11.776;2023-03-23T18:09:21;94944.91;;;14.05;70.80
34185;BME280;20454;48.100;11.776;2023-03-23T18:11:47;94961.69;;;14.05;70.31
34185;BME280;20454;48.100;11.776;2023-03-23T18:14:12;94956.78;;;14.02;70.49
34185;BME280;20454;48.100;11.776;2023-03-23T18:16:38;94961.94;;;14.00;70.35
34185;BME280;20454;48.100;11.776;2023-03-23T18:19:04;94965.91;;;13.99;70.85
34185;BME280;20454;48.100;11.776;2023-03-23T18:21:30;94973.13;;;14.00;70.33
34185;BME280;20454;48.100;11.776;2023-03-23T18:23:56;94961.84;;;13.96;70.40
34185;BME280;20454;48.100;11.776;2023-03-23T18:26:22;94964.28;;;13.98;70.40
34185;BME280;20454;48.100;11.776;2023-03-23T18:28:49;94967.88;;;13.98;70.62
34185;BME280;20454;48.100;11.776;2023-03-23T18:31:16;94968.59;;;13.95;70.17
34185;BME280;20454;48.100;11.776;2023-03-23T18:33:43;94963.00;;;13.95;69.21
34185;BME280;20454;48.100;11.776;2023-03-23T18:36:16;94957.41;;;13.95;69.16
34185;BME280;20454;48.100;11.776;2023-03-23T18:38:46;94971.06;;;13.97;68.67
34185;BME280;20454;48.100;11.776;2023-03-23T18:41:12;94958.50;;;13.91;68.58
34185;BME280;20454;48.100;11.776;2023-03-23T18:43:38;94964.97;;;13.95;66.94
34185;BME280;20454;48.100;11.776;2023-03-23T18:46:04;94979.44;;;13.97;67.43
34185;BME280;20454;48.100;11.776;2023-03-23T18:48:30;94979.06;;;13.98;67.40
34185;BME280;20454;48.100;11.776;2023-03-23T18:50:57;94978.63;;;13.96;68.07
34185;BME280;20454;48.100;11.776;2023-03-23T18:53:24;94972.94;;;13.93;68.34
34185;BME280;20454;48.100;11.776;2023-03-23T18:55:50;94963.16;;;13.87;68.61
34185;BME280;20454;48.100;11.776;2023-03-23T18:58:17;94974.00;;;13.88;69.39
34185;BME280;20454;48.100;11.776;2023-03-23T19:00:43;94978.75;;;13.88;68.91
34185;BME280;20454;48.100;11.776;2023-03-23T19:52:23;94987.91;;;13.33;72.64
34185;BME280;20454;48.100;11.776;2023-03-23T19:54:48;94993.72;;;13.28;73.31
34185;BME280;20454;48.100;11.776;2023-03-23T19:57:14;94994.91;;;13.27;73.65
34185;BME280;20454;48.100;11.776;2023-03-23T19:59:40;94989.53;;;13.22;73.97
34185;BME280;20454;48.100;11.776;2023-03-23T20:02:06;94994.22;;;13.18;74.41
34185;BME280;20454;48.100;11.776;2023-03-23T20:04:31;94981.03;;;13.19;73.52
34185;BME280;20454;48.100;11.776;2023-03-23T20:06:57;94983.84;;;13.19;73.74
34185;BME280;20454;48.100;11.776;2023-03-23T20:09:24;94976.28;;;13.19;73.29
34185;BME280;20454;48.100;11.776;2023-03-23T20:11:50;94977.81;;;13.17;72.95
34185;BME280;20454;48.100;11.776;2023-03-23T20:14:15;94974.19;;;13.16;72.72
34185;BME280;20454;48.100;11.776;2023-03-23T20:16:41;94977.81;;;13.17;72.54
34185;BME280;20454;48.100;11.776;2023-03-23T20:19:07;94974.44;;;13.11;72.80
34185;BME280;20454;48.100;11.776;2023-03-23T20:21:33;94975.22;;;13.12;73.32
34185;BME280;20454;48.100;11.776;2023-03-23T20:23:58;94982.00;;;13.11;73.39
34185;BME280;20454;48.100;11.776;2023-03-23T20:26:33;94974.31;;;13.08;74.11
34185;BME280;20454;48.100;11.776;2023-03-23T20:28:59;94978.97;;;13.04;73.97
34185;BME280;20454;48.100;11.776;2023-03-23T20:31:27;94979.69;;;13.01;74.35
34185;BME280;20454;48.100;11.776;2023-03-23T20:33:59;94980.38;;;12.98;75.25
34185;BME280;20454;48.100;11.776;2023-03-23T20:36:26;94974.53;;;12.91;75.04
34185;BME280;20454;48.100;11.776;2023-03-23T20:38:54;94998.28;;;12.97;75.38
34185;BME280;20454;48.100;11.776;2023-03-23T20:41:21;94984.53;;;12.92;75.85
34185;BME280;20454;48.100;11.776;2023-03-23T20:43:47;94981.72;;;12.92;75.24
34185;BME280;20454;48.100;11.776;2023-03-23T20:46:13;94981.72;;;12.92;75.53
34185;BME280;20454;48.100;11.776;2023-03-23T20:48:39;94976.84;;;12.89;75.46
34185;BME280;20454;48.100;11.776;2023-03-23T20:51:06;94978.81;;;12.88;75.35
34185;BME280;20454;48.100;11.776;2023-03-23T20:53:33;94979.19;;;12.87;75.68
34185;BME280;20454;48.100;11.776;2023-03-23T20:56:01;94983.84;;;12.83;75.10
34185;BME280;20454;48.100;11.776;2023-03-23T20:58:28;94985.00;;;12.82;75.18
34185;BME280;20454;48.100;11.776;2023-03-23T21:00:55;94984.28;;;12.85;74.85
34185;BME280;20454;48.100;11.776;2023-03-23T21:03:26;94981.03;;;12.83;74.91
34185;BME280;20454;48.100;11.776;2023-03-23T21:05:52;94995.34;;;12.81;75.41
34185;BME280;20454;48.100;11.776;2023-03-23T21:08:18;94989.19;;;12.76;75.15
34185;BME280;20454;48.100;11.776;2023-03-23T21:10:45;94982.94;;;12.79;75.47
34185;BME280;20454;48.100;11.776;2023-03-23T21:13:11;94981.97;;;12.75;75.27
34185;BME280;20454;48.100;11.776;2023-03-23T21:15:38;94982.31;;;12.73;75.75
34185;BME280;20454;48.100;11.776;2023-03-23T21:18:04;94979.88;;;12.72;75.62
34185;BME280;20454;48.100;11.776;2023-03-23T21:20:30;94989.06;;;12.72;76.00
34185;BME280;20454;48.100;11.776;2023-03-23T21:22:56;94979.06;;;12.71;76.99
34185;BME280;20454;48.100;11.776;2023-03-23T21:25:22;94980.25;;;12.70;77.33
34185;BME280;20454;48.100;11.776;2023-03-23T21:27:49;94976.84;;;12.65;78.42
34185;BME280;20454;48.100;11.776;2023-03-23T21:30:17;94975.59;;;12.62;78.93
34185;BME280;20454;48.100;11.776;2023-03-23T21:32:43;94970.34;;;12.61;79.76
34185;BME280;20454;48.100;11.776;2023-03-23T21:35:09;94965.31;;;12.54;80.13
34185;BME280;20454;48.100;11.776;2023-03-23T21:37:35;94963.59;;;12.50;80.72
34185;BME280;20454;48.100;11.776;2023-03-23T21:40:00;94966.25;;;12.46;81.71
34185;BME280;20454;48.100;11.776;2023-03-23T21:42:26;94969.41;;;12.45;82.70
34185;BME280;20454;48.100;11.776;2023-03-23T21:44:56;94973.22;;;12.40;83.30
34185;BME280;20454;48.100;11.776;2023-03-23T21:47:22;94963.09;;;12.36;83.83
34185;BME280;20454;48.100;11.776;2023-03-23T21:49:48;94960.19;;;12.32;84.73
34185;BME280;20454;48.100;11.776;2023-03-23T21:52:14;94960.56;;;12.31;85.38
34185;BME280;20454;48.100;11.776;2023-03-23T21:54:39;94967.28;;;12.30;86.33
34185;BME280;20454;48.100;11.776;2023-03-23T21:57:05;94953.91;;;12.23;87.00
34185;BME280;20454;48.100;11.776;2023-03-23T21:59:31;94957.84;;;12.22;87.65
34185;BME280;20454;48.100;11.776;2023-03-23T22:01:57;94949.72;;;12.17;88.85
34185;BME280;20454;48.100;11.776;2023-03-23T22:04:23;94947.25;;;12.16;88.82
34185;BME280;20454;48.100;11.776;2023-03-23T22:06:49;94949.13;;;12.12;88.99
34185;BME280;20454;48.100;11.776;2023-03-23T22:09:15;94935.06;;;12.08;88.78
34185;BME280;20454;48.100;11.776;2023-03-23T22:11:41;94935.41;;;12.07;89.11
34185;BME280;20454;48.100;11.776;2023-03-23T22:14:07;94934.94;;;12.05;89.57
34185;BME280;20454;48.100;11.776;2023-03-23T22:16:33;94934.94;;;12.05;90.23
34185;BME280;20454;48.100;11.776;2023-03-23T22:18:59;94928.41;;;12.01;90.98
34185;BME280;20454;48.100;11.776;2023-03-23T22:21:27;94930.41;;;12.00;91.29
34185;BME280;20454;48.100;11.776;2023-03-23T22:23:54;94917.84;;;11.94;91.67
34185;BME280;20454;48.100;11.776;2023-03-23T22:26:21;94919.34;;;11.92;91.64
34185;BME280;20454;48.100;11.776;2023-03-23T22:28:47;94907.34;;;11.91;92.29
34185;BME280;20454;48.100;11.776;2023-03-23T22:31:19;94908.06;;;11.88;92.75
34185;BME280;20454;48.100;11.776;2023-03-23T22:33:47;94904.31;;;11.84;92.93
34185;BME280;20454;48.100;11.776;2023-03-23T22:36:13;94894.34;;;11.83;93.14
34185;BME280;20454;48.100;11.776;2023-03-23T22:38:41;94901.53;;;11.84;93.31
34185;BME280;20454;48.100;11.776;2023-03-23T22:41:08;94900.75;;;11.84;93.56
34185;BME280;20454;48.100;11.776;2023-03-23T22:43:35;94888.19;;;11.78;93.11
34185;BME280;20454;48.100;11.776;2023-03-23T22:46:02;94889.34;;;11.77;93.23
34185;BME280;20454;48.100;11.776;2023-03-23T22:48:28;94896.53;;;11.78;93.14
34185;BME280;20454;48.100;11.776;2023-03-23T22:50:54;94886.44;;;11.73;93.50
34185;BME280;20454;48.100;11.776;2023-03-23T22:53:20;94880.38;;;11.71;93.67
34185;BME280;20454;48.100;11.776;2023-03-23T22:55:48;94879.56;;;11.71;93.23
34185;BME280;20454;48.100;11.776;2023-03-23T22:58:14;94876.31;;;11.69;93.10
34185;BME280;20454;48.100;11.776;2023-03-23T23:00:43;94877.13;;;11.69;93.25
34185;BME280;20454;48.100;11.776;2023-03-23T23:03:09;94872.59;;;11.65;93.06
34185;BME280;20454;48.100;11.776;2023-03-23T23:05:48;94867.72;;;11.62;93.34
34185;BME280;20454;48.100;11.776;2023-03-23T23:08:14;94858.88;;;11.60;93.18
34185;BME280;20454;48.100;11.776;2023-03-23T23:10:42;94860.50;;;11.61;92.77
34185;BME280;20454;48.100;11.776;2023-03-23T23:13:09;94856.91;;;11.60;92.83
34185;BME280;20454;48.100;11.776;2023-03-23T23:15:36;94858.41;;;11.58;92.44
34185;BME280;20454;48.100;11.776;2023-03-23T23:18:03;94860.34;;;11.57;92.02
34185;BME280;20454;48.100;11.776;2023-03-23T23:20:33;94853.50;;;11.55;91.89
34185;BME280;20454;48.100;11.776;2023-03-23T23:23:00;94856.75;;;11.57;91.04
34185;BME280;20454;48.100;11.776;2023-03-23T23:25:26;94847.44;;;11.53;90.78
34185;BME280;20454;48.100;11.776;2023-03-23T23:27:56;94846.28;;;11.54;90.35
34185;BME280;20454;48.100;11.776;2023-03-23T23:30:25;94846.16;;;11.50;90.30
34185;BME280;20454;48.100;11.776;2023-03-23T23:32:52;94842.78;;;11.45;90.46
34185;BME280;20454;48.100;11.776;2023-03-23T23:35:19;94843.81;;;11.40;90.45
34185;BME280;20454;48.100;11.776;2023-03-23T23:37:45;94840.91;;;11.37;90.41
34185;BME280;20454;48.100;11.776;2023-03-23T23:40:10;94839.50;;;11.31;90.76
34185;BME280;20454;48.100;11.776;2023-03-23T23:42:40;94829.72;;;11.25;90.39
34185;BME280;20454;48.100;11.776;2023-03-23T23:45:06;94821.94;;;11.18;90.39
34185;BME280;20454;48.100;11.776;2023-03-23T23:47:38;94826.34;;;11.19;90.15
34185;BME280;20454;48.100;11.776;2023-03-23T23:50:05;94825.19;;;11.20;89.96
34185;BME280;20454;48.100;11.776;2023-03-23T23:52:32;94819.94;;;11.19;90.00
34185;BME280;20454;48.100;11.776;2023-03-23T23:54:58;94817.03;;;11.15;90.23
34185;BME280;20454;48.100;11.776;2023-03-23T23:57:24;94817.84;;;11.16;89.86
34185;BME280;20454;48.100;11.776;2023-03-23T23:59:50;94831.78;;;11.16;90.09
